sensor_id;sensor_type;location;lat;lon;timestamp;pressure;altitude;pressure_sealevel;temperature;humidity
54936;BME280;40838;50.676;7.838;2023-03-22T00:02:23;97958.78;;;3.50;100.00
54936;BME280;40838;50.676;7.838;2023-03-22T00:04:51;97962.97;;;3.63;100.00
54936;BME280;40838;50.676;7.838;2023-03-22T00:07:18;97961.28;;;3.57;100.00
54936;BME280;40838;50.676;7.838;2023-03-22T00:09:44;97966.06;;;3.77;100.00
54936;BME280;40838;50.676;7.838;2023-03-22T00:12:11;97963.19;;;3.79;100.00
54936;BME280;40838;50.676;7.838;2023-03-22T00:14:38;97960.84;;;3.82;100.00
54936;BME280;40838;50.676;7.838;2023-03-22T00:17:07;97963.16;;;3.95;100.00
54936;BME280;40838;50.676;7.838;2023-03-22T00:19:33;97951.47;;;3.52;100.00
54936;BME280;40838;50.676;7.838;2023-03-22T00:22:02;97962.97;;;3.46;100.00
54936;BME280;40838;50.676;7.838;2023-03-22T00:24:30;97953.31;;;3.69;100.00
54936;BME280;40838;50.676;7.838;2023-03-22T00:26:57;97955.13;;;3.35;100.00
54936;BME280;40838;50.676;7.838;2023-03-22T00:29:25;97952.28;;;2.91;100.00
54936;BME280;40838;50.676;7.838;2023-03-22T00:31:52;97948.28;;;2.88;100.00
54936;BME280;40838;50.676;7.838;2023-03-22T00:34:22;97938.91;;;2.63;100.00
54936;BME280;40838;50.676;7.838;2023-03-22T00:36:48;97936.34;;;2.69;100.00
54936;BME280;40838;50.676;7.838;2023-03-22T00:39:16;97943.03;;;2.88;100.00
54936;BME280;40838;50.676;7.838;2023-03-22T00:41:43;97939.28;;;2.84;100.00
54936;BME280;40838;50.676;7.838;2023-03-22T00:44:10;97935.34;;;2.70;100.00
54936;BME280;40838;50.676;7.838;2023-03-22T00:46:37;97937.53;;;2.61;100.00
54936;BME280;40838;50.676;7.838;2023-03-22T00:49:04;97933.81;;;3.02;100.00
54936;BME280;40838;50.676;7.838;2023-03-22T00:51:32;97929.19;;;3.26;100.00
54936;BME280;40838;50.676;7.838;2023-03-22T00:53:59;97930.66;;;3.51;100.00
54936;BME280;40838;50.676;7.838;2023-03-22T00:56:26;97930.56;;;3.29;100.00
54936;BME280;40838;50.676;7.838;2023-03-22T00:58:59;97935.34;;;3.49;100.00
54936;BME280;40838;50.676;7.838;2023-03-22T01:01:26;97927.19;;;3.67;100.00
54936;BME280;40838;50.676;7.838;2023-03-22T01:03:53;97929.69;;;3.40;100.00
54936;BME280;40838;50.676;7.838;2023-03-22T01:06:20;97929.19;;;3.60;100.00
54936;BME280;40838;50.676;7.838;2023-03-22T01:08:48;97926.16;;;3.68;100.00
54936;BME280;40838;50.676;7.838;2023-03-22T01:11:16;97929.69;;;3.57;100.00
54936;BME280;40838;50.676;7.838;2023-03-22T01:13:43;97922.50;;;3.52;100.00
54936;BME280;40838;50.676;7.838;2023-03-22T01:16:10;97916.22;;;3.53;100.00
54936;BME280;40838;50.676;7.838;2023-03-22T01:18:37;97908.34;;;3.59;100.00
54936;BME280;40838;50.676;7.838;2023-03-22T01:21:04;97902.16;;;3.48;100.00
54936;BME280;40838;50.676;7.838;2023-03-22T01:23:31;97901.59;;;3.46;100.00
54936;BME280;40838;50.676;7.838;2023-03-22T01:26:00;97885.88;;;3.51;100.00
54936;BME280;40838;50.676;7.838;2023-03-22T01:28:27;97890.59;;;3.32;100.00
54936;BME280;40838;50.676;7.838;2023-03-22T01:30:54;97885.03;;;3.67;100.00
54936;BME280;40838;50.676;7.838;2023-03-22T01:33:21;97886.28;;;3.43;100.00
54936;BME280;40838;50.676;7.838;2023-03-22T01:35:50;97894.97;;;3.60;100.00
54936;BME280;40838;50.676;7.838;2023-03-22T01:38:18;97879.88;;;3.39;100.00
54936;BME280;40838;50.676;7.838;2023-03-22T01:40:51;97885.03;;;3.67;100.00
54936;BME280;40838;50.676;7.838;2023-03-22T01:43:20;97883.66;;;3.43;100.00
54936;BME280;40838;50.676;7.838;2023-03-22T01:45:48;97886.66;;;3.68;100.00
54936;BME280;40838;50.676;7.838;2023-03-22T01:48:24;97880.06;;;3.71;100.00
54936;BME280;40838;50.676;7.838;2023-03-22T01:51:01;97878.59;;;3.58;100.00
54936;BME280;40838;50.676;7.838;2023-03-22T01:53:36;97873.22;;;3.70;100.00
54936;BME280;40838;50.676;7.838;2023-03-22T01:56:07;97872.03;;;3.61;100.00
54936;BME280;40838;50.676;7.838;2023-03-22T01:58:37;97874.63;;;3.39;100.00
54936;BME280;40838;50.676;7.838;2023-03-22T02:01:08;97868.03;;;3.19;100.00
54936;BME280;40838;50.676;7.838;2023-03-22T02:03:48;97873.91;;;3.43;100.00
54936;BME280;40838;50.676;7.838;2023-03-22T02:06:16;97874.41;;;3.62;100.00
54936;BME280;40838;50.676;7.838;2023-03-22T02:08:47;97861.47;;;3.22;100.00
54936;BME280;40838;50.676;7.838;2023-03-22T02:11:26;97869.44;;;3.44;100.00
54936;BME280;40838;50.676;7.838;2023-03-22T02:14:24;97862.97;;;3.51;100.00
54936;BME280;40838;50.676;7.838;2023-03-22T02:17:25;97862.56;;;3.60;100.00
54936;BME280;40838;50.676;7.838;2023-03-22T02:23:51;97870.00;;;3.12;100.00
54936;BME280;40838;50.676;7.838;2023-03-22T02:29:36;97869.25;;;3.50;100.00
54936;BME280;40838;50.676;7.838;2023-03-22T02:32:23;97860.03;;;3.31;100.00
54936;BME280;40838;50.676;7.838;2023-03-22T02:35:15;97862.69;;;3.70;100.00
54936;BME280;40838;50.676;7.838;2023-03-22T02:38:03;97847.13;;;3.68;100.00
54936;BME280;40838;50.676;7.838;2023-03-22T02:40:44;97861.13;;;3.52;100.00
54936;BME280;40838;50.676;7.838;2023-03-22T02:43:19;97852.75;;;3.21;100.00
54936;BME280;40838;50.676;7.838;2023-03-22T02:46:03;97842.47;;;3.37;100.00
54936;BME280;40838;50.676;7.838;2023-03-22T02:48:37;97833.63;;;3.26;100.00
54936;BME280;40838;50.676;7.838;2023-03-22T02:51:09;97838.09;;;3.25;100.00
54936;BME280;40838;50.676;7.838;2023-03-22T02:53:42;97831.09;;;2.97;100.00
54936;BME280;40838;50.676;7.838;2023-03-22T02:56:15;97834.09;;;3.40;100.00
54936;BME280;40838;50.676;7.838;2023-03-22T02:58:45;97830.59;;;3.34;100.00
54936;BME280;40838;50.676;7.838;2023-03-22T03:01:17;97828.44;;;3.31;100.00
54936;BME280;40838;50.676;7.838;2023-03-22T03:03:48;97827.50;;;3.20;100.00
54936;BME280;40838;50.676;7.838;2023-03-22T03:06:18;97820.72;;;3.24;100.00
54936;BME280;40838;50.676;7.838;2023-03-22T03:08:47;97819.28;;;3.00;100.00
54936;BME280;40838;50.676;7.838;2023-03-22T03:11:18;97819.38;;;3.22;100.00
54936;BME280;40838;50.676;7.838;2023-03-22T03:13:46;97815.19;;;3.26;100.00
54936;BME280;40838;50.676;7.838;2023-03-22T03:16:14;97816.66;;;2.83;100.00
54936;BME280;40838;50.676;7.838;2023-03-22T03:18:46;97814.50;;;3.14;100.00
54936;BME280;40838;50.676;7.838;2023-03-22T03:21:25;97817.34;;;3.29;100.00
54936;BME280;40838;50.676;7.838;2023-03-22T03:24:16;97815.78;;;2.94;100.00
54936;BME280;40838;50.676;7.838;2023-03-22T03:26:52;97813.63;;;3.25;100.00
54936;BME280;40838;50.676;7.838;2023-03-22T03:29:30;97810.91;;;3.20;100.00
54936;BME280;40838;50.676;7.838;2023-03-22T03:32:03;97810.44;;;3.06;100.00
54936;BME280;40838;50.676;7.838;2023-03-22T03:34:34;97812.75;;;3.19;100.00
54936;BME280;40838;50.676;7.838;2023-03-22T03:37:06;97813.22;;;3.55;100.00
54936;BME280;40838;50.676;7.838;2023-03-22T03:39:38;97805.81;;;3.13;100.00
54936;BME280;40838;50.676;7.838;2023-03-22T03:42:11;97806.03;;;3.28;100.00
54936;BME280;40838;50.676;7.838;2023-03-22T03:44:39;97801.81;;;3.11;100.00
54936;BME280;40838;50.676;7.838;2023-03-22T03:47:09;97804.69;;;3.09;100.00
54936;BME280;40838;50.676;7.838;2023-03-22T03:49:37;97801.19;;;3.03;100.00
54936;BME280;40838;50.676;7.838;2023-03-22T03:52:04;97793.31;;;3.42;100.00
54936;BME280;40838;50.676;7.838;2023-03-22T03:54:31;97800.97;;;3.44;100.00
54936;BME280;40838;50.676;7.838;2023-03-22T03:56:59;97794.03;;;3.38;100.00
54936;BME280;40838;50.676;7.838;2023-03-22T03:59:28;97799.19;;;3.11;100.00
54936;BME280;40838;50.676;7.838;2023-03-22T04:01:56;97794.03;;;2.99;100.00
54936;BME280;40838;50.676;7.838;2023-03-22T04:04:28;97796.06;;;3.30;100.00
54936;BME280;40838;50.676;7.838;2023-03-22T04:07:05;97789.19;;;3.29;100.00
54936;BME280;40838;50.676;7.838;2023-03-22T04:09:37;97797.78;;;2.69;100.00
54936;BME280;40838;50.676;7.838;2023-03-22T04:12:14;97797.13;;;2.96;100.00
54936;BME280;40838;50.676;7.838;2023-03-22T04:14:47;97802.31;;;3.07;100.00
54936;BME280;40838;50.676;7.838;2023-03-22T04:17:21;97804.84;;;3.36;100.00
54936;BME280;40838;50.676;7.838;2023-03-22T04:19:48;97804.66;;;3.26;100.00
54936;BME280;40838;50.676;7.838;2023-03-22T04:22:21;97800.38;;;3.03;100.00
54936;BME280;40838;50.676;7.838;2023-03-22T04:24:48;97811.69;;;3.03;100.00
54936;BME280;40838;50.676;7.838;2023-03-22T04:27:17;97812.75;;;3.02;100.00
54936;BME280;40838;50.676;7.838;2023-03-22T04:30:00;97809.63;;;3.22;100.00
54936;BME280;40838;50.676;7.838;2023-03-22T04:32:47;97800.16;;;2.88;100.00
54936;BME280;40838;50.676;7.838;2023-03-22T04:35:16;97802.78;;;3.04;100.00
54936;BME280;40838;50.676;7.838;2023-03-22T04:37:44;97803.56;;;3.22;100.00
54936;BME280;40838;50.676;7.838;2023-03-22T04:40:14;97808.88;;;3.44;100.00
54936;BME280;40838;50.676;7.838;2023-03-22T04:42:57;97814.00;;;3.34;100.00
54936;BME280;40838;50.676;7.838;2023-03-22T04:45:49;97809.66;;;3.44;100.00
54936;BME280;40838;50.676;7.838;2023-03-22T04:48:21;97815.50;;;3.29;100.00
54936;BME280;40838;50.676;7.838;2023-03-22T04:50:50;97811.56;;;3.10;100.00
54936;BME280;40838;50.676;7.838;2023-03-22T04:53:21;97816.09;;;3.15;100.00
54936;BME280;40838;50.676;7.838;2023-03-22T04:55:53;97815.56;;;2.96;100.00
54936;BME280;40838;50.676;7.838;2023-03-22T04:58:22;97815.66;;;3.40;100.00
54936;BME280;40838;50.676;7.838;2023-03-22T05:00:51;97820.63;;;3.19;100.00
54936;BME280;40838;50.676;7.838;2023-03-22T05:03:20;97816.41;;;3.18;100.00
54936;BME280;40838;50.676;7.838;2023-03-22T05:05:50;97812.03;;;3.07;100.00
54936;BME280;40838;50.676;7.838;2023-03-22T05:08:18;97805.94;;;3.23;100.00
54936;BME280;40838;50.676;7.838;2023-03-22T05:10:48;97804.59;;;3.21;100.00
54936;BME280;40838;50.676;7.838;2023-03-22T05:13:15;97800.69;;;3.06;100.00
54936;BME280;40838;50.676;7.838;2023-03-22T05:15:44;97803.41;;;3.12;100.00
54936;BME280;40838;50.676;7.838;2023-03-22T05:18:15;97795.50;;;3.50;100.00
54936;BME280;40838;50.676;7.838;2023-03-22T05:20:42;97800.84;;;3.34;100.00
54936;BME280;40838;50.676;7.838;2023-03-22T05:23:14;97806.25;;;3.27;100.00
54936;BME280;40838;50.676;7.838;2023-03-22T05:25:47;97800.75;;;3.28;100.00
54936;BME280;40838;50.676;7.838;2023-03-22T05:28:16;97800.56;;;3.52;100.00
54936;BME280;40838;50.676;7.838;2023-03-22T05:31:09;97803.13;;;3.30;100.00
54936;BME280;40838;50.676;7.838;2023-03-22T05:33:49;97811.38;;;3.17;100.00
54936;BME280;40838;50.676;7.838;2023-03-22T05:36:19;97796.38;;;3.56;100.00
54936;BME280;40838;50.676;7.838;2023-03-22T05:39:09;97803.50;;;3.56;100.00
54936;BME280;40838;50.676;7.838;2023-03-22T05:41:36;97801.72;;;3.61;100.00
54936;BME280;40838;50.676;7.838;2023-03-22T05:44:04;97805.22;;;3.45;100.00
54936;BME280;40838;50.676;7.838;2023-03-22T05:46:32;97803.19;;;3.52;100.00
54936;BME280;40838;50.676;7.838;2023-03-22T05:49:27;97803.25;;;3.57;100.00
54936;BME280;40838;50.676;7.838;2023-03-22T05:51:54;97798.59;;;3.42;100.00
54936;BME280;40838;50.676;7.838;2023-03-22T05:54:24;97800.06;;;3.55;100.00
54936;BME280;40838;50.676;7.838;2023-03-22T05:56:51;97793.00;;;3.39;100.00
54936;BME280;40838;50.676;7.838;2023-03-22T05:59:18;97791.56;;;3.48;100.00
54936;BME280;40838;50.676;7.838;2023-03-22T06:01:45;97795.91;;;3.81;100.00
54936;BME280;40838;50.676;7.838;2023-03-22T06:04:18;97789.66;;;3.87;100.00
54936;BME280;40838;50.676;7.838;2023-03-22T06:06:51;97783.09;;;3.68;100.00
54936;BME280;40838;50.676;7.838;2023-03-22T06:09:36;97789.59;;;3.60;100.00
54936;BME280;40838;50.676;7.838;2023-03-22T06:12:06;97782.56;;;4.37;100.00
54936;BME280;40838;50.676;7.838;2023-03-22T06:14:33;97784.09;;;3.84;100.00
54936;BME280;40838;50.676;7.838;2023-03-22T06:17:15;97780.09;;;3.59;100.00
54936;BME280;40838;50.676;7.838;2023-03-22T06:19:45;97784.72;;;3.69;100.00
54936;BME280;40838;50.676;7.838;2023-03-22T06:22:15;97787.75;;;3.83;100.00
54936;BME280;40838;50.676;7.838;2023-03-22T06:24:43;97788.72;;;3.98;100.00
54936;BME280;40838;50.676;7.838;2023-03-22T06:27:16;97791.91;;;4.50;100.00
54936;BME280;40838;50.676;7.838;2023-03-22T06:29:43;97796.50;;;4.59;100.00
54936;BME280;40838;50.676;7.838;2023-03-22T06:32:15;97791.38;;;4.26;100.00
54936;BME280;40838;50.676;7.838;2023-03-22T06:34:42;97797.81;;;4.30;100.00
54936;BME280;40838;50.676;7.838;2023-03-22T06:37:10;97797.59;;;4.36;100.00
54936;BME280;40838;50.676;7.838;2023-03-22T06:39:41;97795.31;;;4.45;100.00
54936;BME280;40838;50.676;7.838;2023-03-22T06:42:09;97798.19;;;4.43;100.00
54936;BME280;40838;50.676;7.838;2023-03-22T06:44:37;97793.22;;;4.47;100.00
54936;BME280;40838;50.676;7.838;2023-03-22T06:47:17;97791.63;;;4.46;100.00
54936;BME280;40838;50.676;7.838;2023-03-22T06:49:56;97791.66;;;4.51;100.00
54936;BME280;40838;50.676;7.838;2023-03-22T06:52:35;97795.25;;;4.40;100.00
54936;BME280;40838;50.676;7.838;2023-03-22T06:55:07;97805.75;;;4.35;100.00
54936;BME280;40838;50.676;7.838;2023-03-22T06:57:35;97794.97;;;4.36;100.00
54936;BME280;40838;50.676;7.838;2023-03-22T07:00:02;97808.50;;;4.77;100.00
54936;BME280;40838;50.676;7.838;2023-03-22T07:02:29;97799.47;;;4.68;100.00
54936;BME280;40838;50.676;7.838;2023-03-22T07:05:11;97794.72;;;4.70;100.00
54936;BME280;40838;50.676;7.838;2023-03-22T07:07:38;97795.75;;;4.37;100.00
54936;BME280;40838;50.676;7.838;2023-03-22T07:10:08;97796.03;;;5.00;100.00
54936;BME280;40838;50.676;7.838;2023-03-22T07:12:35;97787.94;;;5.11;100.00
54936;BME280;40838;50.676;7.838;2023-03-22T07:15:08;97794.03;;;4.80;100.00
54936;BME280;40838;50.676;7.838;2023-03-22T07:17:53;97803.66;;;4.64;100.00
54936;BME280;40838;50.676;7.838;2023-03-22T07:20:20;97804.78;;;4.73;100.00
54936;BME280;40838;50.676;7.838;2023-03-22T07:22:48;97807.63;;;4.66;100.00
54936;BME280;40838;50.676;7.838;2023-03-22T07:25:17;97812.47;;;4.26;100.00
54936;BME280;40838;50.676;7.838;2023-03-22T07:27:48;97805.81;;;4.72;100.00
54936;BME280;40838;50.676;7.838;2023-03-22T07:30:15;97801.94;;;4.80;100.00
54936;BME280;40838;50.676;7.838;2023-03-22T07:32:44;97806.75;;;5.25;100.00
54936;BME280;40838;50.676;7.838;2023-03-22T07:35:12;97798.50;;;5.17;100.00
54936;BME280;40838;50.676;7.838;2023-03-22T07:37:41;97795.97;;;5.32;100.00
54936;BME280;40838;50.676;7.838;2023-03-22T07:40:19;97795.44;;;5.30;100.00
54936;BME280;40838;50.676;7.838;2023-03-22T07:42:47;97791.09;;;5.61;100.00
54936;BME280;40838;50.676;7.838;2023-03-22T07:45:31;97787.22;;;5.79;100.00
54936;BME280;40838;50.676;7.838;2023-03-22T07:48:22;97798.50;;;5.11;100.00
54936;BME280;40838;50.676;7.838;2023-03-22T07:50:56;97791.38;;;5.17;100.00
54936;BME280;40838;50.676;7.838;2023-03-22T07:53:25;97786.16;;;5.27;100.00
54936;BME280;40838;50.676;7.838;2023-03-22T07:55:53;97782.00;;;4.94;100.00
54936;BME280;40838;50.676;7.838;2023-03-22T07:58:20;97787.88;;;4.69;100.00
54936;BME280;40838;50.676;7.838;2023-03-22T08:00:47;97786.56;;;4.72;100.00
54936;BME280;40838;50.676;7.838;2023-03-22T08:03:44;97786.56;;;4.72;100.00
54936;BME280;40838;50.676;7.838;2023-03-22T08:06:30;97782.66;;;5.11;100.00
54936;BME280;40838;50.676;7.838;2023-03-22T08:08:58;97782.50;;;4.59;100.00
54936;BME280;40838;50.676;7.838;2023-03-22T08:11:27;97776.16;;;4.92;100.00
54936;BME280;40838;50.676;7.838;2023-03-22T08:13:53;97777.44;;;5.79;100.00
54936;BME280;40838;50.676;7.838;2023-03-22T08:16:20;97767.25;;;6.14;100.00
54936;BME280;40838;50.676;7.838;2023-03-22T08:18:47;97766.56;;;5.71;100.00
54936;BME280;40838;50.676;7.838;2023-03-22T08:21:15;97758.31;;;6.35;100.00
54936;BME280;40838;50.676;7.838;2023-03-22T08:23:42;97759.25;;;5.88;100.00
54936;BME280;40838;50.676;7.838;2023-03-22T08:26:12;97756.31;;;5.79;100.00
54936;BME280;40838;50.676;7.838;2023-03-22T08:28:40;97754.38;;;5.60;100.00
54936;BME280;40838;50.676;7.838;2023-03-22T08:31:11;97754.50;;;5.32;100.00
54936;BME280;40838;50.676;7.838;2023-03-22T08:33:38;97752.66;;;5.96;100.00
54936;BME280;40838;50.676;7.838;2023-03-22T08:36:06;97751.03;;;5.27;100.00
54936;BME280;40838;50.676;7.838;2023-03-22T08:38:39;97759.44;;;5.19;100.00
54936;BME280;40838;50.676;7.838;2023-03-22T08:41:07;97752.47;;;5.55;100.00
54936;BME280;40838;50.676;7.838;2023-03-22T08:43:36;97749.25;;;5.43;100.00
54936;BME280;40838;50.676;7.838;2023-03-22T08:46:04;97746.28;;;5.87;100.00
54936;BME280;40838;50.676;7.838;2023-03-22T08:48:31;97751.63;;;5.39;100.00
54936;BME280;40838;50.676;7.838;2023-03-22T08:51:15;97744.38;;;5.19;100.00
54936;BME280;40838;50.676;7.838;2023-03-22T08:53:54;97737.50;;;5.71;100.00
54936;BME280;40838;50.676;7.838;2023-03-22T08:56:42;97726.69;;;5.77;100.00
54936;BME280;40838;50.676;7.838;2023-03-22T08:59:29;97733.78;;;5.14;100.00
54936;BME280;40838;50.676;7.838;2023-03-22T09:02:20;97734.28;;;5.58;100.00
54936;BME280;40838;50.676;7.838;2023-03-22T09:04:47;97727.69;;;5.66;100.00
54936;BME280;40838;50.676;7.838;2023-03-22T09:07:14;97736.34;;;5.46;100.00
54936;BME280;40838;50.676;7.838;2023-03-22T09:09:50;97741.19;;;5.75;100.00
54936;BME280;40838;50.676;7.838;2023-03-22T09:12:17;97727.06;;;6.17;100.00
54936;BME280;40838;50.676;7.838;2023-03-22T09:14:44;97728.13;;;6.16;100.00
54936;BME280;40838;50.676;7.838;2023-03-22T09:17:12;97740.59;;;6.41;100.00
54936;BME280;40838;50.676;7.838;2023-03-22T09:19:41;97724.41;;;6.12;100.00
54936;BME280;40838;50.676;7.838;2023-03-22T09:22:08;97726.00;;;6.13;100.00
54936;BME280;40838;50.676;7.838;2023-03-22T09:24:41;97721.38;;;5.67;100.00
54936;BME280;40838;50.676;7.838;2023-03-22T09:27:08;97726.22;;;5.91;100.00
54936;BME280;40838;50.676;7.838;2023-03-22T09:29:35;97714.13;;;6.36;100.00
54936;BME280;40838;50.676;7.838;2023-03-22T09:32:08;97714.38;;;6.75;100.00
54936;BME280;40838;50.676;7.838;2023-03-22T09:34:38;97719.94;;;7.74;100.00
54936;BME280;40838;50.676;7.838;2023-03-22T09:37:06;97714.03;;;7.93;100.00
54936;BME280;40838;50.676;7.838;2023-03-22T09:39:42;97719.41;;;9.62;100.00
54936;BME280;40838;50.676;7.838;2023-03-22T09:42:24;97711.53;;;8.06;100.00
54936;BME280;40838;50.676;7.838;2023-03-22T09:44:55;97718.75;;;7.51;100.00
54936;BME280;40838;50.676;7.838;2023-03-22T09:47:31;97709.59;;;9.15;100.00
54936;BME280;40838;50.676;7.838;2023-03-22T09:50:04;97712.41;;;9.00;100.00
54936;BME280;40838;50.676;7.838;2023-03-22T09:52:33;97712.88;;;9.31;100.00
54936;BME280;40838;50.676;7.838;2023-03-22T09:55:00;97719.97;;;9.83;100.00
54936;BME280;40838;50.676;7.838;2023-03-22T09:57:31;97713.72;;;9.74;100.00
54936;BME280;40838;50.676;7.838;2023-03-22T10:00:07;97727.47;;;9.57;100.00
54936;BME280;40838;50.676;7.838;2023-03-22T10:02:47;97723.56;;;10.12;100.00
54936;BME280;40838;50.676;7.838;2023-03-22T10:05:22;97729.75;;;8.92;100.00
54936;BME280;40838;50.676;7.838;2023-03-22T10:08:02;97725.53;;;8.86;100.00
54936;BME280;40838;50.676;7.838;2023-03-22T10:10:31;97720.41;;;8.31;100.00
54936;BME280;40838;50.676;7.838;2023-03-22T10:13:04;97723.97;;;8.16;100.00
54936;BME280;40838;50.676;7.838;2023-03-22T10:15:35;97716.91;;;8.75;100.00
54936;BME280;40838;50.676;7.838;2023-03-22T10:18:05;97714.66;;;8.87;100.00
54936;BME280;40838;50.676;7.838;2023-03-22T10:20:37;97723.94;;;10.24;100.00
54936;BME280;40838;50.676;7.838;2023-03-22T10:23:11;97719.59;;;8.70;100.00
54936;BME280;40838;50.676;7.838;2023-03-22T10:25:41;97720.81;;;8.09;100.00
54936;BME280;40838;50.676;7.838;2023-03-22T10:28:16;97725.41;;;8.38;100.00
54936;BME280;40838;50.676;7.838;2023-03-22T10:30:46;97733.19;;;9.70;95.86
54936;BME280;40838;50.676;7.838;2023-03-22T10:33:24;97718.69;;;8.06;100.00
54936;BME280;40838;50.676;7.838;2023-03-22T10:35:53;97701.50;;;9.25;100.00
54936;BME280;40838;50.676;7.838;2023-03-22T10:38:24;97685.00;;;8.46;100.00
54936;BME280;40838;50.676;7.838;2023-03-22T10:40:53;97691.88;;;9.77;96.39
54936;BME280;40838;50.676;7.838;2023-03-22T10:43:22;97683.09;;;9.77;92.11
54936;BME280;40838;50.676;7.838;2023-03-22T10:45:52;97686.63;;;8.07;100.00
54936;BME280;40838;50.676;7.838;2023-03-22T10:48:25;97685.66;;;9.82;93.97
54936;BME280;40838;50.676;7.838;2023-03-22T10:50:53;97680.88;;;8.64;98.95
54936;BME280;40838;50.676;7.838;2023-03-22T10:53:28;97693.50;;;8.43;100.00
54936;BME280;40838;50.676;7.838;2023-03-22T10:55:56;97691.72;;;9.20;97.33
54936;BME280;40838;50.676;7.838;2023-03-22T10:58:28;97685.34;;;9.64;93.12
54936;BME280;40838;50.676;7.838;2023-03-22T11:00:57;97699.13;;;9.48;92.52
54936;BME280;40838;50.676;7.838;2023-03-22T11:03:28;97692.25;;;9.65;93.23
54936;BME280;40838;50.676;7.838;2023-03-22T11:06:01;97712.53;;;9.13;95.92
54936;BME280;40838;50.676;7.838;2023-03-22T11:08:37;97693.19;;;10.31;90.74
54936;BME280;40838;50.676;7.838;2023-03-22T11:11:05;97710.28;;;9.26;90.84
54936;BME280;40838;50.676;7.838;2023-03-22T11:13:32;97718.22;;;9.50;90.77
54936;BME280;40838;50.676;7.838;2023-03-22T11:16:01;97709.47;;;9.73;93.30
54936;BME280;40838;50.676;7.838;2023-03-22T11:18:30;97704.94;;;10.12;94.33
54936;BME280;40838;50.676;7.838;2023-03-22T11:20:59;97709.25;;;10.78;89.72
54936;BME280;40838;50.676;7.838;2023-03-22T11:23:31;97728.25;;;9.58;91.36
54936;BME280;40838;50.676;7.838;2023-03-22T11:26:02;97714.94;;;9.82;92.67
54936;BME280;40838;50.676;7.838;2023-03-22T11:28:33;97725.44;;;8.72;97.35
54936;BME280;40838;50.676;7.838;2023-03-22T11:31:04;97720.84;;;8.43;96.08
54936;BME280;40838;50.676;7.838;2023-03-22T11:33:32;97737.53;;;8.54;98.89
54936;BME280;40838;50.676;7.838;2023-03-22T11:36:03;97716.66;;;9.01;95.77
54936;BME280;40838;50.676;7.838;2023-03-22T11:38:37;97714.00;;;9.01;96.61
54936;BME280;40838;50.676;7.838;2023-03-22T11:41:06;97717.06;;;9.13;96.10
54936;BME280;40838;50.676;7.838;2023-03-22T11:43:35;97711.25;;;8.47;95.55
54936;BME280;40838;50.676;7.838;2023-03-22T11:46:05;97720.00;;;9.35;93.04
54936;BME280;40838;50.676;7.838;2023-03-22T11:48:34;97708.53;;;9.59;91.76
54936;BME280;40838;50.676;7.838;2023-03-22T11:51:07;97720.56;;;9.08;93.66
54936;BME280;40838;50.676;7.838;2023-03-22T11:53:38;97717.16;;;9.27;92.68
54936;BME280;40838;50.676;7.838;2023-03-22T11:56:09;97703.91;;;8.39;95.50
54936;BME280;40838;50.676;7.838;2023-03-22T11:58:49;97701.34;;;9.83;94.35
54936;BME280;40838;50.676;7.838;2023-03-22T12:01:30;97708.22;;;8.64;94.11
54936;BME280;40838;50.676;7.838;2023-03-22T12:04:00;97702.09;;;9.89;95.57
54936;BME280;40838;50.676;7.838;2023-03-22T12:06:32;97698.53;;;9.94;90.23
54936;BME280;40838;50.676;7.838;2023-03-22T12:09:04;97686.34;;;9.74;91.89
54936;BME280;40838;50.676;7.838;2023-03-22T12:11:36;97686.34;;;9.74;93.68
54936;BME280;40838;50.676;7.838;2023-03-22T12:14:07;97686.09;;;9.70;90.32
54936;BME280;40838;50.676;7.838;2023-03-22T12:16:40;97691.22;;;9.42;93.67
54936;BME280;40838;50.676;7.838;2023-03-22T12:19:16;97686.31;;;9.50;93.19
54936;BME280;40838;50.676;7.838;2023-03-22T12:21:47;97675.78;;;8.96;93.69
54936;BME280;40838;50.676;7.838;2023-03-22T12:24:26;97686.06;;;9.51;94.19
54936;BME280;40838;50.676;7.838;2023-03-22T12:26:57;97671.50;;;9.25;93.74
54936;BME280;40838;50.676;7.838;2023-03-22T12:29:26;97666.25;;;9.81;91.40
54936;BME280;40838;50.676;7.838;2023-03-22T12:32:00;97669.25;;;10.31;89.16
54936;BME280;40838;50.676;7.838;2023-03-22T12:34:33;97669.22;;;9.37;93.23
54936;BME280;40838;50.676;7.838;2023-03-22T12:37:02;97672.06;;;8.98;97.81
54936;BME280;40838;50.676;7.838;2023-03-22T12:39:34;97661.16;;;9.85;91.25
54936;BME280;40838;50.676;7.838;2023-03-22T12:42:11;97660.13;;;9.19;94.76
54936;BME280;40838;50.676;7.838;2023-03-22T12:44:40;97659.94;;;9.34;92.19
54936;BME280;40838;50.676;7.838;2023-03-22T12:47:16;97648.31;;;9.30;91.15
54936;BME280;40838;50.676;7.838;2023-03-22T12:49:50;97646.84;;;9.81;90.18
54936;BME280;40838;50.676;7.838;2023-03-22T12:52:24;97647.06;;;8.99;94.15
54936;BME280;40838;50.676;7.838;2023-03-22T12:54:54;97660.13;;;8.95;95.93
54936;BME280;40838;50.676;7.838;2023-03-22T12:57:24;97660.88;;;9.01;93.93
54936;BME280;40838;50.676;7.838;2023-03-22T12:59:54;97661.78;;;8.27;97.55
54936;BME280;40838;50.676;7.838;2023-03-22T13:02:24;97658.78;;;8.39;99.30
54936;BME280;40838;50.676;7.838;2023-03-22T13:04:55;97653.66;;;8.48;95.23
54936;BME280;40838;50.676;7.838;2023-03-22T13:07:37;97662.19;;;8.74;94.09
54936;BME280;40838;50.676;7.838;2023-03-22T13:10:56;97658.09;;;8.87;93.18
54936;BME280;40838;50.676;7.838;2023-03-22T13:13:40;97669.63;;;8.43;95.38
54936;BME280;40838;50.676;7.838;2023-03-22T13:16:19;97654.94;;;8.56;92.73
54936;BME280;40838;50.676;7.838;2023-03-22T13:19:17;97657.66;;;8.45;94.84
54936;BME280;40838;50.676;7.838;2023-03-22T13:21:47;97657.38;;;8.47;91.50
54936;BME280;40838;50.676;7.838;2023-03-22T13:24:21;97669.09;;;8.41;90.96
54936;BME280;40838;50.676;7.838;2023-03-22T13:26:51;97673.50;;;8.21;92.38
54936;BME280;40838;50.676;7.838;2023-03-22T13:29:20;97667.25;;;8.07;91.45
54936;BME280;40838;50.676;7.838;2023-03-22T13:31:57;97672.16;;;7.84;92.10
54936;BME280;40838;50.676;7.838;2023-03-22T13:34:35;97666.50;;;8.01;92.11
54936;BME280;40838;50.676;7.838;2023-03-22T13:37:07;97665.03;;;8.19;92.30